createdAt,value
2022-09-11T00:04:38.123Z,15.38
2022-09-11T00:10:09.699Z,15.37
2022-09-11T00:15:42.504Z,15.36
2022-09-11T00:21:13.414Z,15.34
2022-09-11T00:26:45.787Z,15.34
2022-09-11T00:32:16.956Z,15.34
2022-09-11T00:37:48.990Z,15.33
2022-09-11T00:43:19.798Z,15.32
2022-09-11T00:48:51.047Z,15.30
2022-09-11T00:54:29.245Z,15.28
2022-09-11T01:00:02.136Z,15.28
2022-09-11T01:05:36.367Z,15.27
2022-09-11T01:11:26.091Z,15.27
2022-09-11T01:17:12.986Z,15.27
2022-09-11T01:23:08.407Z,15.27
2022-09-11T01:28:44.721Z,15.25
2022-09-11T01:34:23.446Z,15.23
2022-09-11T01:40:02.481Z,15.23
2022-09-11T01:45:37.499Z,15.20
2022-09-11T01:51:15.860Z,15.17
2022-09-11T01:57:04.418Z,15.15
2022-09-11T02:02:39.379Z,15.15
2022-09-11T02:08:14.595Z,15.14
2022-09-11T02:14:13.501Z,15.14
2022-09-11T02:19:44.701Z,15.11
2022-09-11T02:25:17.752Z,15.10
2022-09-11T02:30:50.131Z,15.09
2022-09-11T02:36:49.831Z,15.08
2022-09-11T02:42:58.885Z,15.04
2022-09-11T02:49:07.004Z,15.02
2022-09-11T02:54:54.438Z,15.00
2022-09-11T03:00:28.132Z,14.98
2022-09-11T03:05:59.167Z,15.00
2022-09-11T03:11:30.114Z,14.97
2022-09-11T03:17:02.377Z,14.97
2022-09-11T03:22:34.427Z,14.97
2022-09-11T03:28:07.825Z,14.94
2022-09-11T03:33:39.779Z,14.90
2022-09-11T03:39:13.907Z,14.89
2022-09-11T03:44:45.792Z,14.88
2022-09-11T03:50:17.681Z,14.89
2022-09-11T03:55:50.413Z,14.89
2022-09-11T04:01:23.291Z,14.87
2022-09-11T04:06:56.881Z,14.87
2022-09-11T04:12:29.587Z,14.85
2022-09-11T04:18:05.441Z,14.85
2022-09-11T04:23:39.061Z,14.85
2022-09-11T04:29:10.500Z,14.83
2022-09-11T04:34:42.043Z,14.82
2022-09-11T04:40:13.635Z,14.80
2022-09-11T04:45:46.134Z,14.80
2022-09-11T04:51:29.681Z,14.77
2022-09-11T04:57:04.456Z,14.73
2022-09-11T05:02:38.768Z,14.72
2022-09-11T05:08:11.732Z,14.72
2022-09-11T05:13:44.745Z,14.72
2022-09-11T05:19:16.675Z,14.69
2022-09-11T05:24:49.692Z,14.69
2022-09-11T05:30:21.258Z,14.70
2022-09-11T05:35:55.354Z,14.70
2022-09-11T05:41:30.497Z,14.69
2022-09-11T05:47:02.089Z,14.72
2022-09-11T05:52:35.246Z,14.70
2022-09-11T05:58:08.093Z,14.69
2022-09-11T06:03:39.859Z,14.68
2022-09-11T06:09:12.374Z,14.67
2022-09-11T06:14:45.432Z,14.69
2022-09-11T06:20:18.195Z,14.73
2022-09-11T06:25:54.608Z,14.74
2022-09-11T06:31:27.253Z,14.78
2022-09-11T06:36:59.191Z,14.80
2022-09-11T06:42:31.046Z,14.83
2022-09-11T06:48:05.392Z,14.85
2022-09-11T06:53:38.390Z,14.87
2022-09-11T06:59:16.197Z,14.90
2022-09-11T07:04:47.710Z,14.95
2022-09-11T07:10:20.235Z,14.98
2022-09-11T07:16:03.276Z,15.04
2022-09-11T07:21:37.505Z,15.04
2022-09-11T07:27:10.523Z,15.10
2022-09-11T07:32:41.817Z,15.12
2022-09-11T07:38:14.098Z,15.17
2022-09-11T07:43:52.827Z,15.24
2022-09-11T07:49:24.440Z,15.29
2022-09-11T07:54:57.173Z,15.39
2022-09-11T08:00:36.913Z,15.44
2022-09-11T08:06:22.321Z,15.50
2022-09-11T08:11:58.760Z,15.56
2022-09-11T08:17:31.944Z,15.61
2022-09-11T08:23:03.439Z,15.67
2022-09-11T08:28:35.966Z,15.70
2022-09-11T08:34:07.379Z,15.74
2022-09-11T08:39:38.822Z,15.84
2022-09-11T08:45:21.228Z,15.97
2022-09-11T08:50:52.600Z,16.11
2022-09-11T08:56:25.060Z,16.17
2022-09-11T09:02:31.809Z,16.29
2022-09-11T09:08:13.737Z,16.35
2022-09-11T09:13:51.922Z,16.36
2022-09-11T09:19:48.393Z,16.40
2022-09-11T09:25:23.852Z,16.48
2022-09-11T09:31:01.395Z,16.55
2022-09-11T09:36:41.391Z,16.60
2022-09-11T09:42:20.082Z,16.67
2022-09-11T09:47:53.581Z,16.74
2022-09-11T09:53:36.214Z,16.85
2022-09-11T09:59:15.972Z,16.94
2022-09-11T10:04:54.526Z,16.99
2022-09-11T10:10:35.039Z,17.04
2022-09-11T10:16:25.562Z,17.12
2022-09-11T10:22:22.754Z,17.22
2022-09-11T10:28:06.129Z,17.30
2022-09-11T10:33:41.685Z,17.38
2022-09-11T10:39:17.364Z,17.46
2022-09-11T10:44:49.625Z,17.51
2022-09-11T10:50:24.273Z,17.54
2022-09-11T10:56:03.573Z,17.59
2022-09-11T11:01:35.178Z,17.64
2022-09-11T11:07:35.488Z,17.69
2022-09-11T11:13:22.878Z,17.73
2022-09-11T11:19:16.692Z,17.73
2022-09-11T11:24:56.457Z,17.68
2022-09-11T11:30:33.544Z,17.65
2022-09-11T11:36:22.437Z,17.66
2022-09-11T11:42:22.151Z,17.67
2022-09-11T11:47:55.208Z,17.67
2022-09-11T11:53:31.439Z,17.64
2022-09-11T11:59:21.517Z,17.61
2022-09-11T12:05:03.832Z,17.60
2022-09-11T12:10:39.865Z,17.64
2022-09-11T12:16:17.530Z,17.68
2022-09-11T12:21:54.970Z,17.74
2022-09-11T12:27:35.128Z,17.76
2022-09-11T12:33:41.900Z,17.75
2022-09-11T12:39:53.256Z,17.73
2022-09-11T12:45:30.636Z,17.74
2022-09-11T12:51:02.757Z,17.77
2022-09-11T12:56:37.099Z,17.79
2022-09-11T13:02:36.331Z,17.82
2022-09-11T13:08:16.284Z,17.86
2022-09-11T13:13:49.374Z,17.89
2022-09-11T13:19:21.271Z,17.91
2022-09-11T13:24:52.728Z,17.92
2022-09-11T13:30:24.841Z,17.95
2022-09-11T13:35:59.456Z,17.99
2022-09-11T13:41:33.681Z,18.02
2022-09-11T13:47:07.614Z,18.05
2022-09-11T13:52:39.723Z,18.06
2022-09-11T13:58:23.319Z,18.07
2022-09-11T14:03:54.032Z,18.08
2022-09-11T14:09:25.006Z,18.09
2022-09-11T14:14:58.676Z,18.11
2022-09-11T14:20:30.398Z,18.12
2022-09-11T14:26:14.855Z,18.11
2022-09-11T14:31:49.132Z,18.11
2022-09-11T14:37:20.837Z,18.09
2022-09-11T14:42:51.938Z,18.07
2022-09-11T14:48:23.168Z,18.06
2022-09-11T14:53:54.516Z,18.07
2022-09-11T14:59:26.112Z,18.10
2022-09-11T15:04:58.786Z,18.11
2022-09-11T15:10:31.898Z,18.11
2022-09-11T15:16:03.400Z,18.10
2022-09-11T15:21:37.574Z,18.08
2022-09-11T15:27:10.524Z,18.06
2022-09-11T15:32:41.667Z,18.04
2022-09-11T15:38:14.029Z,18.02
2022-09-11T15:43:45.433Z,18.01
2022-09-11T15:49:17.533Z,17.98
2022-09-11T15:54:49.087Z,17.97
2022-09-11T16:00:20.419Z,17.96
2022-09-11T16:05:51.415Z,17.95
2022-09-11T16:11:24.484Z,17.91
2022-09-11T16:16:57.269Z,17.87
2022-09-11T16:22:31.469Z,17.82
2022-09-11T16:28:03.215Z,17.80
2022-09-11T16:33:37.081Z,17.77
2022-09-11T16:39:10.689Z,17.72
2022-09-11T16:44:42.537Z,17.68
2022-09-11T16:50:13.388Z,17.65
2022-09-11T16:55:44.328Z,17.62
2022-09-11T17:01:24.031Z,17.59
2022-09-11T17:06:58.345Z,17.55
2022-09-11T17:12:29.807Z,17.51
2022-09-11T17:18:01.066Z,17.48
2022-09-11T17:23:33.755Z,17.44
2022-09-11T17:29:05.123Z,17.40
2022-09-11T17:34:37.761Z,17.36
2022-09-11T17:40:09.761Z,17.31
2022-09-11T17:45:40.968Z,17.28
2022-09-11T17:51:14.316Z,17.24
2022-09-11T17:56:45.664Z,17.19
2022-09-11T18:02:18.369Z,17.16
2022-09-11T18:07:51.280Z,17.11
2022-09-11T18:13:22.295Z,17.06
2022-09-11T18:18:54.774Z,17.02
2022-09-11T18:24:29.843Z,16.98
2022-09-11T18:30:01.447Z,16.96
2022-09-11T18:35:34.390Z,16.92
2022-09-11T18:41:05.373Z,16.90
2022-09-11T18:46:37.644Z,16.88
2022-09-11T18:52:09.291Z,16.85
2022-09-11T18:57:43.059Z,16.83
2022-09-11T19:03:20.795Z,16.79
2022-09-11T19:08:54.104Z,16.75
2022-09-11T19:14:25.310Z,16.72
2022-09-11T19:19:56.300Z,16.70
2022-09-11T19:25:30.269Z,16.68
2022-09-11T19:31:02.378Z,16.65
2022-09-11T19:36:36.104Z,16.63
2022-09-11T19:42:09.410Z,16.60
2022-09-11T19:47:41.481Z,16.56
2022-09-11T19:53:13.757Z,16.51
2022-09-11T19:58:45.552Z,16.49
2022-09-11T20:04:17.939Z,16.42
2022-09-11T20:09:48.855Z,16.36
2022-09-11T20:15:19.807Z,16.30
2022-09-11T20:20:50.703Z,16.28
2022-09-11T20:26:28.162Z,16.23
2022-09-11T20:32:00.545Z,16.17
2022-09-11T20:37:35.017Z,16.08
2022-09-11T20:43:06.287Z,15.97
2022-09-11T20:48:37.672Z,15.91
2022-09-11T20:54:09.389Z,15.84
2022-09-11T20:59:43.273Z,15.80
2022-09-11T21:05:14.756Z,15.74
2022-09-11T21:10:46.019Z,15.68
2022-09-11T21:16:17.673Z,15.59
2022-09-11T21:21:48.516Z,15.54
2022-09-11T21:27:19.659Z,15.50
2022-09-11T21:32:50.603Z,15.45
2022-09-11T21:38:28.722Z,15.38
2022-09-11T21:43:59.826Z,15.33
2022-09-11T21:49:31.131Z,15.31
2022-09-11T21:55:02.208Z,15.28
2022-09-11T22:00:42.500Z,15.24
2022-09-11T22:06:14.379Z,15.19
2022-09-11T22:11:46.432Z,15.18
2022-09-11T22:17:17.502Z,15.13
2022-09-11T22:22:48.912Z,15.10
2022-09-11T22:28:19.916Z,15.05
2022-09-11T22:33:52.073Z,15.01
2022-09-11T22:39:23.520Z,14.95
2022-09-11T22:44:54.296Z,14.93
2022-09-11T22:50:25.552Z,14.91
2022-09-11T22:55:57.518Z,14.87
2022-09-11T23:01:28.504Z,14.83
2022-09-11T23:07:17.442Z,14.80
2022-09-11T23:12:48.743Z,14.78
2022-09-11T23:18:19.790Z,14.78
2022-09-11T23:23:54.471Z,14.74
2022-09-11T23:29:25.734Z,14.71
2022-09-11T23:34:56.915Z,14.68
2022-09-11T23:40:31.446Z,14.64
2022-09-11T23:46:04.927Z,14.63
2022-09-11T23:51:35.943Z,14.60
2022-09-11T23:57:06.786Z,14.58
